Thursday, August 16, 2018, 5:56 AM GMT
Back to Local

CYUL, Montreal / Pierre Elliot Trudeau International Airport, Que

Location: , , Canada Lat: 45.467
Local Time: 5:56 AM GMT ( 5:56 GMT) Lon: -73.75
Time Zone: GMT Elev: 101 ft

Show me the last for .
Show Decoded

2018-08-16 05:00 METAR CYUL 160500Z 33004KT 15SM FEW048 SCT062 BKN075 22/15 A2993 RMK SC2SC2AC3
                 SLP138 DENSITY ALT 1000FT =
2018-08-16 04:00 METAR CYUL 160400Z 29005KT 15SM SCT050 BKN077 BKN230 21/15 A2993 RMK SC3AC2CI2
                 SLP136 DENSITY ALT 900FT =
2018-08-16 03:00 METAR CYUL 160300Z 30009KT 15SM BKN048 OVC080 23/14 A2992 RMK SC5AC3 SLP133
                 DENSITY ALT 1100FT =
2018-08-16 02:00 METAR CYUL 160200Z 32007KT 15SM FEW064 OVC080 24/15 A2991 RMK SC2AC6 SLP128
                 DENSITY ALT 1200FT =
2018-08-16 01:00 METAR CYUL 160100Z 31007KT 15SM BKN075 OVC095 24/16 A2990 RMK AC7AC1 SLP125
                 DENSITY ALT 1300FT =
2018-08-16 00:00 METAR CYUL 160000Z 30007KT 15SM FEW045 BKN070 OVC100 25/16 A2987 RMK SC1AC7AC1
                 SC TR SLP117 DENSITY ALT 1400FT =
2018-08-15 23:00 METAR CYUL 152300Z 29009KT 15SM FEW035 FEW048 BKN075 25/17 A2985 RMK CU1SC1ACC6
                 CU TR SLP109 DENSITY ALT 1500FT =
2018-08-15 22:00 METAR CYUL 152200Z 28011KT 15SM FEW035TCU FEW050 SCT085 SCT250 26/19 A2983 RMK
                 TCU1SC2AC2CI1 TCU TR CI TR SLP102 DENSITY ALT 1600FT =
2018-08-15 21:00 METAR CYUL 152100Z 25014KT 15SM FEW035 BKN048 26/19 A2983 RMK CU1SC7 CU TR TCU
                 EMBD NE SLP102 DENSITY ALT 1600FT =
2018-08-15 20:00 METAR CYUL 152000Z 26011KT 15SM FEW035TCU BKN050 27/17 A2983 RMK TCU1SC5 TCU N
                 SLP102 DENSITY ALT 1600FT =
2018-08-15 19:00 METAR CYUL 151900Z 26006KT 200V290 15SM FEW030TCU FEW110 FEW240 27/20 A2983 RMK
                 TCU1AC1CI1 CI TR SLP103 DENSITY ALT 1700FT =
2018-08-15 18:00 METAR CYUL 151800Z 24003KT 130V260 15SM FEW025TCU FEW110 26/20 A2984 RMK TCU1AC1
                 TCU N SLP106 DENSITY ALT 1600FT =
2018-08-15 17:21 METAR CYUL 151721Z 27006KT 15SM FEW015 FEW070 FEW230 25/21 A2985 RMK CF1AC1CI1
                 CI TR SLP108 DENSITY ALT 1400FT =
2018-08-15 17:00 METAR CYUL 151700Z 27005KT 250V330 15SM -SHRA FEW015 FEW070 BKN230 24/21 A2984
                 RMK CU1AC1CI4 SLP107 DENSITY ALT 1400FT =
2018-08-15 16:00 METAR CYUL 151600Z 27009KT 15SM SCT011 BKN070 OVC250 23/21 A2986 RMK CF3AC4CI1
                 SLP113 DENSITY ALT 1200FT =
2018-08-15 15:45 METAR CYUL 151545Z 26008KT 15SM FEW012 BKN070 BKN160 OVC250 23/21 A2986 RMK
                 SC1ACC4AC2CI1 SLP113 DENSITY ALT 1200FT =
2018-08-15 15:16 METAR CYUL 151516Z 27008KT 15SM -SHRA BKN012 OVC070 22/21 A2985 RMK SC7AC1 CVCTV
                 CLD EMBD PRESRR SLP110 DENSITY ALT 1100FT =
2018-08-15 15:00 METAR CYUL 151500Z 28007KT 15SM -SHRA FEW015 FEW070 BKN170 OVC270 23/20 A2983
                 RMK SC1AC1AS5CI1 SLP102 DENSITY ALT 1200FT =
2018-08-15 14:00 METAR CYUL 151400Z 31006KT 240V320 15SM FEW013 SCT160 BKN220 23/21 A2982 RMK
                 SC1AC2CI4 CB EMBD W SLP100 DENSITY ALT 1300FT =
2018-08-15 13:00 METAR CYUL 151300Z 22009KT 15SM FEW009 FEW060 BKN250 24/21 A2980 RMK SF1SC1CI4
                 SLP092 DENSITY ALT 1300FT =
2018-08-15 12:00 METAR CYUL 151200Z 24008KT 15SM SCT007 SCT060 BKN250 23/21 A2981 RMK SF3SC1CI3
                 SLP094 DENSITY ALT 1200FT =
2018-08-15 11:44 METAR CYUL 151144Z 23010KT 15SM SCT008 SCT060 BKN250 22/21 A2980 RMK SF4SC1CI3
                 SC TR SLP093 DENSITY ALT 1200FT =
2018-08-15 11:06 METAR CYUL 151106Z 24007KT 15SM BKN007 BKN012 OVC060 22/21 A2980 RMK SF5SF1SC2
                 SLP091 DENSITY ALT 1100FT =
2018-08-15 11:00 METAR CYUL 151100Z 24007KT 15SM FEW008 BKN011 OVC060 22/21 A2979 RMK SF1SC5SC2
                 SLP090 DENSITY ALT 1200FT =
2018-08-15 10:00 METAR CYUL 151000Z 25006KT 15SM FEW060 SCT250 22/21 A2978 RMK SC1CI3 SC TR
                 SLP085 DENSITY ALT 1100FT =
2018-08-15 09:00 METAR CYUL 150900Z 22006KT 15SM FEW062 SCT250 22/21 A2976 RMK SC1CI3 SC TR
                 SLP080 DENSITY ALT 1200FT =
2018-08-15 08:00 METAR CYUL 150800Z 24007KT 15SM FEW070 BKN250 23/21 A2976 RMK AC1CI5 AC TR
                 SLP079 DENSITY ALT 1200FT =
2018-08-15 07:00 METAR CYUL 150700Z 25006KT 15SM FEW070 SCT250 23/21 A2976 RMK AC1CI2 SLP080
                 DENSITY ALT 1300FT =
2018-08-15 06:00 METAR CYUL 150600Z VRB02KT 15SM FEW075 BKN250 22/21 A2976 RMK AC2CI3 SLP080
                 DENSITY ALT 1200FT =

Support USWX by starting your Amazon purchase here.